This is the latest recevied weather packets stored in our database for station/object W5GBS-9. If no packets are shown the sender has not sent any weather packets the latest 10 day(s).
| Time | Temp. | Humidity | Pressure | Rain* | Wind** | Luminosity | Snow |
|---|---|---|---|---|---|---|---|
| 1787970526 | 28.33° C | 100% | 1013.3 hPa | 0 mm | - | - | - |
| 1787969805 | 28.33° C | 100% | 1013.1 hPa | 0 mm | - | - | - |
| 1787969084 | 28.33° C | 100% | 1013 hPa | 0 mm | - | - | - |
| 1787968364 | 28.33° C | 100% | 1012.8 hPa | 0 mm | - | - | - |
| 1787967643 | 28.33° C | 100% | 1012.8 hPa | 0 mm | - | - | - |
| 1787966922 | 28.33° C | 100% | 1012.6 hPa | 0 mm | - | - | - |
| 1787966201 | 28.89° C | 100% | 1012.5 hPa | 0 mm | - | - | - |
| 1787965481 | 28.89° C | 100% | 1012.5 hPa | 0 mm | - | - | - |
| 1787964760 | 28.89° C | 100% | 1012.6 hPa | 0 mm | - | - | - |
| 1787964039 | 29.44° C | 100% | 1012.4 hPa | 0 mm | - | - | - |
| 1787963319 | 31.11° C | 100% | 1012.6 hPa | 0 mm | - | - | - |
| 1787962598 | 32.78° C | 100% | 1012.3 hPa | 0 mm | - | - | - |
| 1787957553 | 37.22° C | 100% | 1011.4 hPa | 0 mm | - | - | - |
| 1787956112 | 36.67° C | 100% | 1011.7 hPa | 0 mm | - | - | - |
| 1787954670 | 36.67° C | 100% | 1012 hPa | 0 mm | - | - | - |
| 1787953950 | 36.11° C | 100% | 1012.1 hPa | 0 mm | - | - | - |
| 1787952508 | 36.67° C | 100% | 1012.4 hPa | 0 mm | - | - | - |
| 1787951067 | 36.67° C | 100% | 1012.9 hPa | 0 mm | - | - | - |
| 1787949626 | 36.11° C | 100% | 1013.6 hPa | 0 mm | - | - | - |
| 1787947464 | 35.56° C | 100% | 1014.7 hPa | 0 mm | - | - | - |
| 1787945301 | 34.44° C | 100% | 1015 hPa | 0 mm | - | - | - |
| 1787940977 | 33.33° C | 100% | 1016.1 hPa | 0 mm | - | - | - |
| 1787940257 | 33.33° C | 100% | 1016.3 hPa | 0 mm | - | - | - |
| 1787939536 | 33.33° C | 100% | 1016.4 hPa | 0 mm | - | - | - |
| 1787938815 | 32.78° C | 100% | 1016.5 hPa | 0 mm | - | - | - |
* Rain latest hour (hover to see other rain measurements)
** Current wind speed in m/s (hover to see current wind gust speed)